createdAt,value
2023-04-08T00:01:57.338Z,6.67
2023-04-08T00:04:24.942Z,6.60
2023-04-08T00:06:52.407Z,6.47
2023-04-08T00:09:21.248Z,6.90
2023-04-08T00:11:48.670Z,6.98
2023-04-08T00:14:16.258Z,6.79
2023-04-08T00:16:43.725Z,6.14
2023-04-08T00:19:11.549Z,6.37
2023-04-08T00:21:38.921Z,6.12
2023-04-08T00:24:06.979Z,6.14
2023-04-08T00:26:35.866Z,6.31
2023-04-08T00:29:03.296Z,6.15
2023-04-08T00:31:30.983Z,6.66
2023-04-08T00:33:58.828Z,6.82
2023-04-08T00:36:27.655Z,6.38
2023-04-08T00:38:55.456Z,6.38
2023-04-08T00:41:22.850Z,6.54
2023-04-08T00:43:51.590Z,7.27
2023-04-08T00:46:19.658Z,6.62
2023-04-08T00:48:47.138Z,6.67
2023-04-08T00:51:14.614Z,6.79
2023-04-08T00:53:42.075Z,6.50
2023-04-08T00:56:09.498Z,6.58
2023-04-08T00:58:37.138Z,7.04
2023-04-08T01:01:11.452Z,6.51
2023-04-08T01:03:46.196Z,6.77
2023-04-08T01:06:20.627Z,6.63
2023-04-08T01:08:49.401Z,6.17
2023-04-08T01:11:17.602Z,6.78
2023-04-08T01:13:46.602Z,6.91
2023-04-08T01:16:17.590Z,6.60
2023-04-08T01:18:47.463Z,6.36
2023-04-08T01:21:17.353Z,6.55
2023-04-08T01:24:00.626Z,6.46
2023-04-08T01:26:30.235Z,6.79
2023-04-08T01:29:01.398Z,6.61
2023-04-08T01:31:30.456Z,7.01
2023-04-08T01:34:00.654Z,6.32
2023-04-08T01:36:29.603Z,6.44
2023-04-08T01:38:57.609Z,6.60
2023-04-08T01:41:25.467Z,6.41
2023-04-08T01:43:55.630Z,6.09
2023-04-08T01:46:23.567Z,6.43
2023-04-08T01:48:52.378Z,6.56
2023-04-08T01:51:21.078Z,7.16
2023-04-08T01:53:48.546Z,6.78
2023-04-08T01:56:17.325Z,6.27
2023-04-08T01:58:50.312Z,5.96
2023-04-08T02:01:21.979Z,6.11
2023-04-08T02:03:52.144Z,6.79
2023-04-08T02:06:19.681Z,6.26
2023-04-08T02:08:47.151Z,6.23
2023-04-08T02:11:14.715Z,6.65
2023-04-08T02:13:42.491Z,6.52
2023-04-08T02:16:16.243Z,6.17
2023-04-08T02:18:52.947Z,6.20
2023-04-08T02:21:23.870Z,6.59
2023-04-08T02:23:52.118Z,6.33
2023-04-08T02:26:21.904Z,6.55
2023-04-08T02:28:51.114Z,7.36
2023-04-08T02:31:20.509Z,6.30
2023-04-08T02:33:50.793Z,6.55
2023-04-08T02:36:18.766Z,6.58
2023-04-08T02:38:49.303Z,6.45
2023-04-08T02:41:16.973Z,6.14
2023-04-08T02:43:44.617Z,6.23
2023-04-08T02:46:12.920Z,6.39
2023-04-08T02:48:40.323Z,6.42
2023-04-08T02:51:09.265Z,6.21
2023-04-08T02:53:36.711Z,6.67
2023-04-08T02:56:04.189Z,6.53
2023-04-08T02:58:31.655Z,6.55
2023-04-08T03:00:59.099Z,6.45
2023-04-08T03:03:29.777Z,6.70
2023-04-08T03:05:58.195Z,6.65
2023-04-08T03:08:27.033Z,6.46
2023-04-08T03:10:54.429Z,6.55
2023-04-08T03:13:21.841Z,6.25
2023-04-08T03:15:49.301Z,6.42
2023-04-08T03:18:17.769Z,6.59
2023-04-08T03:20:45.221Z,6.55
2023-04-08T03:23:12.629Z,6.62
2023-04-08T03:25:41.327Z,6.49
2023-04-08T03:28:08.745Z,6.30
2023-04-08T03:30:36.481Z,6.70
2023-04-08T03:33:07.892Z,6.36
2023-04-08T03:35:35.558Z,6.31
2023-04-08T03:38:03.016Z,6.49
2023-04-08T03:40:30.410Z,6.35
2023-04-08T03:42:59.163Z,6.79
2023-04-08T03:45:26.603Z,6.54
2023-04-08T03:47:54.046Z,6.59
2023-04-08T03:50:21.478Z,6.47
2023-04-08T03:52:48.889Z,6.21
2023-04-08T03:55:16.297Z,6.39
2023-04-08T03:57:44.917Z,6.45
2023-04-08T04:00:15.149Z,6.23
2023-04-08T04:02:42.609Z,6.48
2023-04-08T04:05:10.662Z,6.42
2023-04-08T04:07:38.058Z,6.86
2023-04-08T04:10:06.562Z,6.50
2023-04-08T04:12:34.011Z,6.48
2023-04-08T04:15:01.405Z,6.28
2023-04-08T04:17:30.183Z,6.63
2023-04-08T04:19:57.642Z,6.59
2023-04-08T04:22:25.096Z,6.56
2023-04-08T04:24:52.517Z,6.72
2023-04-08T04:27:19.918Z,7.10
2023-04-08T04:29:47.369Z,6.57
2023-04-08T04:32:14.814Z,7.04
2023-04-08T04:34:44.454Z,7.28
2023-04-08T04:37:11.971Z,7.03
2023-04-08T04:39:39.448Z,6.51
2023-04-08T04:42:07.514Z,7.06
2023-04-08T04:44:34.956Z,7.21
2023-04-08T04:47:02.373Z,7.28
2023-04-08T04:49:29.928Z,7.38
2023-04-08T04:51:58.764Z,7.56
2023-04-08T04:54:26.507Z,7.69
2023-04-08T04:56:53.956Z,7.83
2023-04-08T04:59:21.433Z,7.49
2023-04-08T05:01:48.982Z,7.37
2023-04-08T05:04:16.518Z,7.34
2023-04-08T05:06:43.934Z,7.58
2023-04-08T05:09:12.684Z,8.30
2023-04-08T05:11:40.094Z,6.96
2023-04-08T05:14:07.927Z,6.80
2023-04-08T05:16:35.772Z,7.02
2023-04-08T05:19:03.316Z,6.99
2023-04-08T05:21:30.787Z,6.61
2023-04-08T05:23:58.168Z,7.28
2023-04-08T05:26:27.146Z,7.34
2023-04-08T05:28:54.633Z,6.89
2023-04-08T05:31:22.330Z,6.50
2023-04-08T05:33:49.765Z,6.59
2023-04-08T05:36:17.319Z,6.80
2023-04-08T05:38:44.750Z,7.48
2023-04-08T05:41:12.280Z,7.83
2023-04-08T05:43:41.262Z,6.81
2023-04-08T05:46:09.179Z,7.50
2023-04-08T05:48:36.737Z,7.12
2023-04-08T05:51:04.499Z,7.33
2023-04-08T05:53:32.192Z,7.39
2023-04-08T05:55:59.646Z,6.93
2023-04-08T05:58:27.069Z,7.16
2023-04-08T06:00:56.395Z,6.86
2023-04-08T06:03:23.942Z,7.23
2023-04-08T06:05:51.630Z,7.20
2023-04-08T06:08:19.054Z,6.90
2023-04-08T06:10:50.021Z,7.76
2023-04-08T06:13:17.464Z,7.06
2023-04-08T06:15:44.934Z,7.06
2023-04-08T06:18:13.656Z,6.67
2023-04-08T06:20:41.048Z,6.98
2023-04-08T06:23:08.449Z,6.98
2023-04-08T06:25:35.861Z,8.05
2023-04-08T06:28:03.308Z,7.60
2023-04-08T06:30:30.720Z,7.38
2023-04-08T06:32:58.167Z,8.23
2023-04-08T06:35:27.967Z,7.56
2023-04-08T06:37:55.918Z,7.17
2023-04-08T06:40:23.330Z,7.52
2023-04-08T06:42:50.788Z,7.26
2023-04-08T06:45:18.188Z,7.19
2023-04-08T06:47:45.672Z,7.40
2023-04-08T06:50:13.097Z,7.76
2023-04-08T06:52:41.848Z,7.78
2023-04-08T06:55:10.004Z,7.53
2023-04-08T06:57:37.441Z,7.44
2023-04-08T07:00:05.690Z,8.01
2023-04-08T07:02:33.233Z,9.02
2023-04-08T07:05:00.978Z,9.21
2023-04-08T07:07:28.412Z,8.99
2023-04-08T07:09:57.197Z,7.88
2023-04-08T07:12:24.737Z,7.63
2023-04-08T07:14:53.080Z,8.16
2023-04-08T07:17:20.584Z,8.96
2023-04-08T07:19:49.265Z,8.11
2023-04-08T07:22:17.287Z,8.03
2023-04-08T07:24:49.561Z,8.33
2023-04-08T07:27:18.374Z,8.21
2023-04-08T07:29:45.809Z,8.70
2023-04-08T07:32:13.217Z,8.64
2023-04-08T07:34:40.749Z,8.63
2023-04-08T07:37:08.148Z,8.18
2023-04-08T07:39:35.588Z,8.44
2023-04-08T07:42:03.053Z,8.83
2023-04-08T07:44:31.820Z,8.10
2023-04-08T07:46:59.271Z,8.25
2023-04-08T07:49:26.721Z,8.22
2023-04-08T07:51:54.170Z,8.39
2023-04-08T07:54:21.604Z,8.26
2023-04-08T07:56:49.034Z,8.34
2023-04-08T07:59:16.674Z,8.38
2023-04-08T08:01:46.893Z,8.43
2023-04-08T08:04:14.838Z,8.05
2023-04-08T08:06:42.378Z,8.57
2023-04-08T08:09:09.833Z,8.65
2023-04-08T08:11:37.232Z,8.61
2023-04-08T08:14:05.270Z,8.63
2023-04-08T08:16:33.710Z,8.91
2023-04-08T08:19:02.901Z,8.95
2023-04-08T08:21:31.292Z,9.35
2023-04-08T08:23:59.616Z,9.52
2023-04-08T08:26:27.331Z,9.47
2023-04-08T08:28:55.040Z,9.21
2023-04-08T08:31:22.614Z,8.94
2023-04-08T08:33:50.250Z,8.82
2023-04-08T08:36:19.513Z,8.75
2023-04-08T08:38:46.973Z,8.81
2023-04-08T08:41:15.412Z,9.38
2023-04-08T08:43:42.861Z,8.86
2023-04-08T08:46:12.420Z,9.61
2023-04-08T08:48:40.743Z,9.47
2023-04-08T08:51:09.949Z,9.47
2023-04-08T08:53:39.117Z,9.95
2023-04-08T08:58:40.318Z,10.44
2023-04-08T09:01:32.797Z,10.10
2023-04-08T09:04:12.185Z,10.67
2023-04-08T09:06:40.028Z,10.22
2023-04-08T09:09:11.132Z,10.01
2023-04-08T09:11:39.878Z,8.86
2023-04-08T09:14:18.209Z,9.56
2023-04-08T09:16:45.856Z,9.59
2023-04-08T09:19:13.493Z,9.88
2023-04-08T09:21:42.305Z,10.54
2023-04-08T09:24:28.967Z,10.52
2023-04-08T09:26:57.097Z,10.52
2023-04-08T09:29:27.120Z,10.83
2023-04-08T09:31:56.938Z,10.03
2023-04-08T09:34:25.210Z,10.69
2023-04-08T09:36:53.057Z,10.10
2023-04-08T09:39:21.972Z,11.20
2023-04-08T09:41:50.992Z,14.07
2023-04-08T09:44:20.758Z,12.59
2023-04-08T09:46:57.631Z,11.05
2023-04-08T09:49:28.002Z,10.54
2023-04-08T09:52:01.009Z,10.57
2023-04-08T09:54:38.884Z,10.02
2023-04-08T09:57:10.717Z,10.44
2023-04-08T09:59:39.938Z,10.22
2023-04-08T10:02:12.403Z,10.04
2023-04-08T10:04:42.609Z,9.86
2023-04-08T10:07:10.539Z,9.35
2023-04-08T10:09:41.504Z,10.23
2023-04-08T10:12:09.098Z,10.69
2023-04-08T10:14:36.551Z,10.69
2023-04-08T10:17:28.596Z,10.68
2023-04-08T10:19:58.562Z,10.88
2023-04-08T10:22:49.104Z,11.01
2023-04-08T10:25:34.433Z,11.33
2023-04-08T10:28:03.397Z,11.14
2023-04-08T10:30:40.418Z,12.06
2023-04-08T10:33:12.221Z,11.20
2023-04-08T10:35:42.904Z,10.72
2023-04-08T10:38:11.685Z,10.81
2023-04-08T10:40:42.897Z,11.57
2023-04-08T10:43:11.530Z,10.63
2023-04-08T10:45:39.558Z,11.24
2023-04-08T10:48:14.358Z,11.72
2023-04-08T10:50:41.948Z,12.27
2023-04-08T10:53:09.472Z,12.17
2023-04-08T10:55:37.019Z,11.36
2023-04-08T10:58:09.485Z,12.27
2023-04-08T11:00:38.236Z,11.03
2023-04-08T11:03:08.228Z,11.45
2023-04-08T11:05:37.066Z,11.24
2023-04-08T11:08:05.533Z,11.48
2023-04-08T11:10:38.393Z,11.91
2023-04-08T11:13:09.890Z,11.60
2023-04-08T11:15:38.046Z,10.91
2023-04-08T11:18:06.382Z,11.65
2023-04-08T11:20:36.185Z,11.52
2023-04-08T11:23:04.055Z,11.67
2023-04-08T11:25:31.960Z,11.68
2023-04-08T11:28:00.253Z,11.65
2023-04-08T11:30:30.834Z,11.64
2023-04-08T11:32:58.419Z,11.50
2023-04-08T11:35:29.936Z,11.42
2023-04-08T11:37:57.945Z,11.38
2023-04-08T11:40:26.325Z,11.14
2023-04-08T11:42:54.162Z,11.23
2023-04-08T11:45:22.535Z,11.67
2023-04-08T11:47:51.512Z,11.75
2023-04-08T11:50:25.620Z,11.93
2023-04-08T11:52:53.814Z,12.13
2023-04-08T11:55:26.364Z,11.96
2023-04-08T11:57:54.556Z,12.35
2023-04-08T12:00:22.954Z,11.91
2023-04-08T12:02:52.857Z,12.38
2023-04-08T12:05:21.429Z,12.63
2023-04-08T12:07:48.973Z,12.45
2023-04-08T12:10:16.482Z,12.80
2023-04-08T12:12:43.940Z,11.84
2023-04-08T12:15:11.981Z,12.53
2023-04-08T12:17:39.714Z,13.38
2023-04-08T12:20:09.678Z,13.54
2023-04-08T12:22:40.165Z,12.87
2023-04-08T12:25:07.979Z,11.79
2023-04-08T12:27:35.650Z,11.47
2023-04-08T12:30:03.959Z,12.00
2023-04-08T12:32:31.783Z,12.45
2023-04-08T12:34:59.198Z,12.07
2023-04-08T12:37:28.611Z,12.36
2023-04-08T12:39:56.071Z,12.79
2023-04-08T12:42:23.486Z,13.48
2023-04-08T12:44:50.936Z,12.39
2023-04-08T12:47:25.579Z,12.16
2023-04-08T12:49:53.668Z,12.51
2023-04-08T12:52:21.097Z,12.85
2023-04-08T12:54:49.824Z,12.65
2023-04-08T12:57:17.523Z,13.55
2023-04-08T12:59:44.923Z,12.87
2023-04-08T13:02:12.376Z,13.67
2023-04-08T13:04:39.804Z,12.80
2023-04-08T13:07:07.627Z,12.08
2023-04-08T13:09:35.070Z,12.28
2023-04-08T13:12:03.982Z,12.43
2023-04-08T13:14:31.414Z,12.41
2023-04-08T13:16:58.851Z,12.34
2023-04-08T13:19:26.331Z,12.18
2023-04-08T13:21:53.697Z,12.85
2023-04-08T13:24:21.194Z,12.46
2023-04-08T13:26:48.609Z,12.40
2023-04-08T13:29:17.333Z,12.98
2023-04-08T13:31:44.878Z,12.88
2023-04-08T13:34:12.355Z,12.77
2023-04-08T13:36:39.787Z,12.64
2023-04-08T13:39:07.244Z,12.18
2023-04-08T13:41:35.009Z,12.71
2023-04-08T13:44:02.430Z,12.56
2023-04-08T13:46:31.336Z,12.79
2023-04-08T13:48:58.933Z,12.97
2023-04-08T13:51:27.414Z,13.53
2023-04-08T13:53:54.794Z,12.56
2023-04-08T13:56:22.221Z,13.03
2023-04-08T13:58:56.539Z,12.95
2023-04-08T14:01:24.842Z,13.44
2023-04-08T14:03:53.643Z,13.32
2023-04-08T14:06:21.141Z,14.34
2023-04-08T14:08:48.671Z,13.79
2023-04-08T14:11:16.328Z,13.86
2023-04-08T14:13:43.748Z,13.98
2023-04-08T14:16:11.169Z,13.52
2023-04-08T14:18:38.598Z,12.76
2023-04-08T14:21:07.518Z,12.87
2023-04-08T14:23:34.974Z,12.39
2023-04-08T14:26:02.412Z,12.56
2023-04-08T14:28:29.910Z,12.67
2023-04-08T14:30:57.380Z,12.83
2023-04-08T14:33:24.887Z,13.17
2023-04-08T14:35:53.583Z,13.17
2023-04-08T14:38:23.032Z,13.33
2023-04-08T14:40:50.728Z,13.16
2023-04-08T14:43:18.185Z,13.39
2023-04-08T14:45:45.962Z,13.82
2023-04-08T14:48:13.426Z,14.35
2023-04-08T14:50:40.836Z,14.66
2023-04-08T14:53:08.252Z,14.76
2023-04-08T14:55:36.953Z,15.38
2023-04-08T14:58:04.352Z,14.50
2023-04-08T15:00:31.731Z,14.87
2023-04-08T15:02:59.293Z,13.75
2023-04-08T15:05:26.746Z,13.64
2023-04-08T15:07:54.717Z,13.86
2023-04-08T15:10:22.155Z,13.61
2023-04-08T15:12:50.852Z,13.55
2023-04-08T15:15:18.265Z,13.31
2023-04-08T15:17:45.722Z,12.88
2023-04-08T15:20:14.448Z,13.04
2023-04-08T15:22:42.162Z,12.85
2023-04-08T15:25:10.849Z,12.73
2023-04-08T15:27:38.666Z,13.22
2023-04-08T15:30:09.808Z,12.99
2023-04-08T15:32:38.204Z,12.83
2023-04-08T15:35:06.668Z,13.24
2023-04-08T15:37:34.161Z,13.72
2023-04-08T15:40:01.814Z,14.38
2023-04-08T15:42:29.370Z,13.99
2023-04-08T15:44:56.761Z,14.64
2023-04-08T15:47:25.995Z,14.01
2023-04-08T15:49:55.797Z,13.96
2023-04-08T15:52:23.252Z,14.04
2023-04-08T15:54:50.732Z,14.20
2023-04-08T15:57:18.164Z,13.88
2023-04-08T15:59:45.624Z,15.12
2023-04-08T16:02:13.141Z,15.09
2023-04-08T16:04:42.768Z,14.30
2023-04-08T16:07:10.475Z,13.59
2023-04-08T16:09:37.898Z,13.05
2023-04-08T16:12:05.561Z,13.28
2023-04-08T16:14:33.012Z,13.99
2023-04-08T16:17:00.414Z,13.43
2023-04-08T16:19:28.259Z,13.83
2023-04-08T16:21:57.057Z,13.63
2023-04-08T16:24:24.498Z,14.51
2023-04-08T16:26:51.910Z,13.48
2023-04-08T16:29:19.376Z,14.16
2023-04-08T16:31:46.876Z,14.03
2023-04-08T16:34:14.533Z,13.64
2023-04-08T16:36:42.280Z,14.52
2023-04-08T16:39:11.086Z,15.33
2023-04-08T16:41:39.338Z,15.51
2023-04-08T16:44:06.980Z,15.27
2023-04-08T16:46:34.503Z,14.96
2023-04-08T16:49:02.396Z,14.46
2023-04-08T16:51:29.921Z,13.62
2023-04-08T16:53:58.949Z,13.49
2023-04-08T16:56:28.229Z,13.39
2023-04-08T16:58:55.767Z,13.20
2023-04-08T17:01:23.229Z,13.76
2023-04-08T17:03:52.830Z,14.10
2023-04-08T17:06:20.678Z,14.55
2023-04-08T17:08:48.144Z,13.91
2023-04-08T17:11:16.302Z,14.15
2023-04-08T17:13:45.655Z,14.87
2023-04-08T17:16:13.986Z,14.62
2023-04-08T17:18:41.650Z,14.52
2023-04-08T17:21:09.120Z,14.49
2023-04-08T17:23:36.542Z,13.32
2023-04-08T17:26:07.496Z,13.89
2023-04-08T17:28:35.224Z,14.03
2023-04-08T17:31:04.166Z,13.83
2023-04-08T17:33:32.121Z,14.13
2023-04-08T17:35:59.568Z,13.83
2023-04-08T17:38:27.065Z,13.81
2023-04-08T17:40:54.787Z,13.96
2023-04-08T17:43:22.221Z,13.60
2023-04-08T17:45:50.129Z,13.71
2023-04-08T17:48:19.019Z,13.66
2023-04-08T17:50:46.530Z,13.61
2023-04-08T17:53:13.941Z,13.36
2023-04-08T17:55:41.375Z,13.36
2023-04-08T17:58:08.836Z,13.35
2023-04-08T18:00:36.288Z,13.29
2023-04-08T18:03:03.823Z,13.37
2023-04-08T18:05:32.742Z,12.35
2023-04-08T18:08:00.202Z,12.94
2023-04-08T18:10:27.665Z,12.86
2023-04-08T18:13:10.341Z,12.81
2023-04-08T18:15:38.968Z,12.94
2023-04-08T18:18:06.381Z,13.12
2023-04-08T18:20:37.750Z,11.63
2023-04-08T18:23:05.390Z,12.45
2023-04-08T18:25:34.455Z,12.70
2023-04-08T18:28:02.156Z,12.95
2023-04-08T18:30:30.100Z,12.95
2023-04-08T18:32:57.640Z,12.85
2023-04-08T18:35:25.316Z,12.57
2023-04-08T18:37:54.197Z,12.76
2023-04-08T18:40:21.851Z,13.02
2023-04-08T18:42:49.245Z,12.61
2023-04-08T18:45:16.832Z,12.81
2023-04-08T18:47:44.286Z,12.32
2023-04-08T18:50:11.932Z,12.82
2023-04-08T18:52:39.510Z,12.81
2023-04-08T18:55:08.767Z,12.80
2023-04-08T18:57:36.177Z,12.77
2023-04-08T19:00:03.714Z,12.80
2023-04-08T19:02:31.713Z,12.71
2023-04-08T19:04:59.415Z,12.92
2023-04-08T19:07:27.423Z,12.90
2023-04-08T19:09:57.560Z,11.74
2023-04-08T19:12:26.626Z,11.92
2023-04-08T19:14:54.124Z,12.24
2023-04-08T19:17:21.590Z,12.46
2023-04-08T19:19:48.999Z,12.41
2023-04-08T19:22:17.033Z,12.05
2023-04-08T19:24:44.634Z,12.34
2023-04-08T19:27:13.905Z,12.38
2023-04-08T19:29:42.750Z,13.48
2023-04-08T19:32:10.249Z,13.59
2023-04-08T19:34:38.470Z,12.96
2023-04-08T19:37:06.042Z,12.52
2023-04-08T19:39:33.490Z,12.98
2023-04-08T19:42:00.878Z,13.00
2023-04-08T19:44:28.408Z,12.93
2023-04-08T19:46:57.830Z,12.42
2023-04-08T19:49:25.774Z,12.39
2023-04-08T19:51:53.243Z,12.14
2023-04-08T19:54:21.779Z,12.04
2023-04-08T19:56:49.446Z,12.13
2023-04-08T19:59:17.149Z,12.22
2023-04-08T20:01:44.629Z,12.11
2023-04-08T20:04:13.561Z,12.21
2023-04-08T20:06:41.225Z,11.67
2023-04-08T20:09:08.861Z,11.86
2023-04-08T20:11:36.407Z,11.49
2023-04-08T20:14:04.293Z,11.75
2023-04-08T20:16:32.080Z,11.95
2023-04-08T20:18:59.703Z,12.07
2023-04-08T20:21:28.746Z,11.69
2023-04-08T20:23:57.063Z,12.29
2023-04-08T20:26:24.434Z,12.09
2023-04-08T20:28:52.076Z,11.37
2023-04-08T20:31:19.987Z,10.65
2023-04-08T20:33:47.472Z,11.13
2023-04-08T20:36:14.936Z,11.74
2023-04-08T20:38:43.785Z,11.26
2023-04-08T20:41:11.329Z,11.68
2023-04-08T20:43:39.391Z,10.58
2023-04-08T20:46:06.853Z,11.56
2023-04-08T20:48:34.480Z,11.49
2023-04-08T20:51:01.955Z,11.50
2023-04-08T20:53:29.819Z,11.43
2023-04-08T20:55:58.664Z,10.95
2023-04-08T20:58:26.062Z,11.54
2023-04-08T21:00:53.612Z,11.41
2023-04-08T21:03:21.448Z,11.63
2023-04-08T21:05:50.127Z,11.32
2023-04-08T21:08:17.824Z,11.50
2023-04-08T21:10:45.206Z,11.61
2023-04-08T21:13:14.043Z,11.73
2023-04-08T21:15:41.469Z,11.55
2023-04-08T21:18:11.079Z,11.27
2023-04-08T21:20:40.418Z,11.27
2023-04-08T21:23:08.146Z,11.17
2023-04-08T21:25:35.613Z,11.02
2023-04-08T21:28:03.049Z,10.89
2023-04-08T21:30:31.848Z,10.94
2023-04-08T21:32:59.313Z,10.96
2023-04-08T21:35:26.914Z,11.08
2023-04-08T21:37:54.340Z,10.99
2023-04-08T21:40:21.810Z,10.36
2023-04-08T21:42:49.379Z,10.97
2023-04-08T21:45:16.920Z,10.84
2023-04-08T21:47:46.069Z,11.24
2023-04-08T21:50:13.532Z,11.16
2023-04-08T21:52:42.305Z,11.18
2023-04-08T21:55:11.340Z,10.84
2023-04-08T21:57:39.261Z,11.04
2023-04-08T22:00:13.153Z,10.77
2023-04-08T22:02:41.472Z,10.80
2023-04-08T22:05:11.760Z,10.86
2023-04-08T22:07:39.277Z,10.79
2023-04-08T22:10:07.932Z,10.83
2023-04-08T22:12:35.495Z,10.78
2023-04-08T22:15:03.570Z,10.74
2023-04-08T22:17:31.379Z,10.70
2023-04-08T22:19:59.159Z,10.59
2023-04-08T22:22:27.910Z,10.48
2023-04-08T22:24:55.390Z,10.50
2023-04-08T22:27:22.834Z,10.41
2023-04-08T22:29:50.249Z,10.54
2023-04-08T22:32:18.210Z,10.65
2023-04-08T22:34:45.675Z,10.47
2023-04-08T22:37:13.219Z,10.44
2023-04-08T22:39:42.017Z,10.33
2023-04-08T22:42:09.526Z,10.27
2023-04-08T22:44:37.000Z,10.26
2023-04-08T22:47:04.611Z,10.36
2023-04-08T22:49:32.034Z,10.32
2023-04-08T22:51:59.557Z,10.23
2023-04-08T22:54:26.996Z,10.15
2023-04-08T22:56:55.782Z,10.11
2023-04-08T22:59:23.289Z,10.05
2023-04-08T23:01:50.888Z,10.06
2023-04-08T23:04:18.423Z,10.00
2023-04-08T23:06:45.959Z,10.05
2023-04-08T23:09:13.454Z,10.05
2023-04-08T23:11:40.863Z,10.11
2023-04-08T23:14:10.987Z,10.06
2023-04-08T23:16:38.401Z,9.98
2023-04-08T23:19:05.804Z,9.80
2023-04-08T23:21:33.276Z,9.94
2023-04-08T23:24:00.786Z,10.05
2023-04-08T23:26:28.274Z,9.88
2023-04-08T23:28:55.873Z,10.01
2023-04-08T23:31:24.687Z,9.88
2023-04-08T23:33:52.099Z,9.98
2023-04-08T23:36:19.533Z,10.00
2023-04-08T23:38:47.024Z,9.88
2023-04-08T23:41:14.414Z,9.86
2023-04-08T23:43:41.812Z,9.88
2023-04-08T23:46:09.289Z,9.75
2023-04-08T23:48:38.020Z,10.06
2023-04-08T23:51:06.108Z,10.15
2023-04-08T23:53:33.637Z,9.99
2023-04-08T23:56:05.835Z,10.02
2023-04-08T23:58:33.628Z,10.05
